Bookmark and Share
Track history (hours):
 

Minerva Libra

Last reported at 2014-Apr-17 15:33 UTC. Time now 2014-Apr-17 15:42 UTC.
Position N 50°38' E 000°41'.

Length 250 m; draft 14.1 m.

Type: Tanker. MMSI: 240766000.

NotesDate/timePositionNaut miles runAvg speedWind from/ knotsBaromVisibWave heightAir tempDewpointWater temp
2014-Apr-17 15:33N 50°38' E 000°41'1313.1
2014-Apr-17 14:33N 50°47' E 000°57'1211.5
2014-Apr-17 13:33N 50°54' E 001°11'1110.2
2014-Apr-17 12:30N 51°02' E 001°23'1111.4
2014-Apr-17 11:34N 51°08' E 001°37'1211.7
2014-Apr-17 10:34N 51°18' E 001°48'1514.6
2014-Apr-17 09:33N 51°30' E 002°01'1514.6
2014-Apr-17 08:33N 51°41' E 002°17'1413.7
2014-Apr-17 07:33N 51°51' E 002°31'6711.2
2014-Apr-17 01:33N 52°53' E 003°14'1312.7
2014-Apr-17 00:33N 53°05' E 003°20'1313.4
2014-Apr-16 23:33N 53°18' E 003°27'30912.2
2014-Apr-15 22:12N 57°32' E 008°36'3512.5
2014-Apr-15 19:23N 57°46' E 009°36'1312.4
2014-Apr-15 18:23N 57°49' E 009°59'1112.8
2014-Apr-15 17:33N 57°50' E 010°19'1312.5
2014-Apr-15 16:33N 57°50' E 010°42'9 9.3
2014-Apr-15 15:33N 57°43' E 010°55'1211.9
2014-Apr-15 14:33N 57°35' E 011°11'12 5.8
2014-Apr-15 12:34N 57°27' E 011°27'1211.6
2014-Apr-15 11:34N 57°16' E 011°34'1212.1
2014-Apr-15 10:33N 57°04' E 011°41'1212.6
2014-Apr-15 09:34N 56°53' E 011°49'1211.9
2014-Apr-15 08:33N 56°41' E 011°49'128 9.1
2014-Apr-14 18:33N 54°34' E 011°17'1211.7
2014-Apr-14 17:34N 54°29' E 011°35'1211.9
2014-Apr-14 16:34N 54°27' E 011°55'1010.4
2014-Apr-14 15:34N 54°29' E 012°13'1010.1
2014-Apr-14 14:34N 54°38' E 012°20'8 8.4
2014-Apr-14 13:33N 54°42' E 012°33'19 9.6
2014-Apr-14 11:33N 54°52' E 013°02'1312.6
2014-Apr-14 10:32N 54°56' E 013°23'1312.6
2014-Apr-14 09:33N 54°60' E 013°44'1212.5
2014-Apr-14 08:33N 55°04' E 014°04'1312.4
2014-Apr-14 07:33N 55°13' E 014°18'1312.8
2014-Apr-14 06:33N 55°23' E 014°32'1212.4
2014-Apr-14 05:33N 55°30' E 014°50'37211.6
2014-Apr-12 21:27N 59°39' E 023°26'1112.4
2014-Apr-12 20:33N 59°42' E 023°48'2512.5
2014-Apr-12 18:31N 59°48' E 024°36'  
2014-Apr-09 03:33N 59°59' E 026°42'5 4.3
2014-Apr-09 02:29N 59°59' E 026°33'50 5.6
2014-Apr-08 17:33N 59°46' E 024°57'8 8.1
2014-Apr-08 16:33N 59°45' E 024°41'9 8.0
2014-Apr-08 15:27N 59°43' E 024°24'8 7.0
2014-Apr-08 14:15N 59°41' E 024°08'4 4.2
2014-Apr-08 13:25N 59°39' E 024°01'6 7.0
2014-Apr-08 12:32N 59°38' E 023°50'6 6.5
2014-Apr-08 11:33N 59°36' E 023°38'4 4.4
2014-Apr-08 10:33N 59°34' E 023°29'5 5.1
2014-Apr-08 09:33N 59°33' E 023°20'5 5.1
2014-Apr-08 08:33N 59°31' E 023°10'5 4.9
2014-Apr-08 07:31N 59°30' E 023°01'  

Dump ship's entire track history

sailing weather and tide predictions

Minerva Libra — SVAA7 — position and weather